createdAt,value
2018-08-31T00:00:23.212Z,14.10
2018-08-31T00:02:54.886Z,14.20
2018-08-31T00:05:35.380Z,13.90
2018-08-31T00:08:14.923Z,13.60
2018-08-31T00:10:53.931Z,13.50
2018-08-31T00:13:22.340Z,13.50
2018-08-31T00:15:51.444Z,13.50
2018-08-31T00:18:19.921Z,13.40
2018-08-31T00:20:48.469Z,13.40
2018-08-31T00:23:16.952Z,13.50
2018-08-31T00:26:11.379Z,13.40
2018-08-31T00:29:12.688Z,13.40
2018-08-31T00:34:05.170Z,13.50
2018-08-31T00:38:52.132Z,13.40
2018-08-31T00:41:36.569Z,13.20
2018-08-31T00:46:19.455Z,13.10
2018-08-31T00:48:48.104Z,13.10
2018-08-31T00:51:16.528Z,13.00
2018-08-31T00:53:45.072Z,13.10
2018-08-31T00:56:14.105Z,13.20
2018-08-31T00:58:42.495Z,13.30
2018-08-31T01:01:11.192Z,13.30
2018-08-31T01:03:39.784Z,13.40
2018-08-31T01:06:08.413Z,13.30
2018-08-31T01:08:36.952Z,13.40
2018-08-31T01:11:05.379Z,13.30
2018-08-31T01:13:33.841Z,13.20
2018-08-31T01:16:02.236Z,13.30
2018-08-31T01:18:30.792Z,13.30
2018-08-31T01:20:59.287Z,13.20
2018-08-31T01:23:27.720Z,13.20
2018-08-31T01:25:56.153Z,13.20
2018-08-31T01:28:24.536Z,13.20
2018-08-31T01:30:53.064Z,13.20
2018-08-31T01:33:21.692Z,13.10
2018-08-31T01:35:50.237Z,13.10
2018-08-31T01:38:18.625Z,13.00
2018-08-31T01:40:47.188Z,13.10
2018-08-31T01:43:15.576Z,13.10
2018-08-31T01:45:44.747Z,13.10
2018-08-31T01:48:13.546Z,13.10
2018-08-31T01:50:47.462Z,13.00
2018-08-31T01:53:15.856Z,13.10
2018-08-31T01:55:44.427Z,13.10
2018-08-31T01:58:12.937Z,13.20
2018-08-31T02:00:41.649Z,13.20
2018-08-31T02:03:10.184Z,13.20
2018-08-31T02:05:38.795Z,13.10
2018-08-31T02:08:07.496Z,13.10
2018-08-31T02:10:35.992Z,13.20
2018-08-31T02:13:04.527Z,13.20
2018-08-31T02:15:32.893Z,13.20
2018-08-31T02:18:02.072Z,13.20
2018-08-31T02:20:30.584Z,13.20
2018-08-31T02:22:59.669Z,13.20
2018-08-31T02:25:29.012Z,13.20
2018-08-31T02:27:57.456Z,13.30
2018-08-31T02:30:26.630Z,13.20
2018-08-31T02:32:55.132Z,13.10
2018-08-31T02:35:23.517Z,13.00
2018-08-31T02:37:51.901Z,13.00
2018-08-31T02:40:20.261Z,12.90
2018-08-31T02:42:49.013Z,13.00
2018-08-31T02:45:17.684Z,13.00
2018-08-31T02:47:47.186Z,13.00
2018-08-31T02:50:16.282Z,13.00
2018-08-31T02:52:45.361Z,13.00
2018-08-31T02:55:13.983Z,13.00
2018-08-31T02:57:42.716Z,13.00
2018-08-31T03:00:11.335Z,13.00
2018-08-31T03:02:39.927Z,13.00
2018-08-31T03:05:08.380Z,13.00
2018-08-31T03:07:36.924Z,13.00
2018-08-31T03:10:06.061Z,13.00
2018-08-31T03:12:34.613Z,13.00
2018-08-31T03:15:03.557Z,12.90
2018-08-31T03:17:32.003Z,13.00
2018-08-31T03:20:00.413Z,13.00
2018-08-31T03:22:28.836Z,13.10
2018-08-31T03:24:57.296Z,13.10
2018-08-31T03:27:25.777Z,13.10
2018-08-31T03:29:54.240Z,13.00
2018-08-31T03:32:22.804Z,13.00
2018-08-31T03:34:51.833Z,12.90
2018-08-31T03:37:20.380Z,12.90
2018-08-31T03:39:49.669Z,12.80
2018-08-31T03:42:18.364Z,12.80
2018-08-31T03:44:46.840Z,12.80
2018-08-31T03:47:15.956Z,12.80
2018-08-31T03:49:44.408Z,12.80
2018-08-31T03:52:12.915Z,12.80
2018-08-31T03:54:42.149Z,12.80
2018-08-31T03:57:11.760Z,12.70
2018-08-31T03:59:40.416Z,12.70
2018-08-31T04:02:09.681Z,12.70
2018-08-31T04:04:38.760Z,12.60
2018-08-31T04:07:07.524Z,12.60
2018-08-31T04:09:36.049Z,12.60
2018-08-31T04:12:04.696Z,12.50
2018-08-31T04:14:33.140Z,12.60
2018-08-31T04:17:01.951Z,12.60
2018-08-31T04:19:30.355Z,12.60
2018-08-31T04:21:58.852Z,12.60
2018-08-31T04:24:27.588Z,12.60
2018-08-31T04:26:56.085Z,12.70
2018-08-31T04:29:24.568Z,12.60
2018-08-31T04:31:53.049Z,12.70
2018-08-31T04:34:21.522Z,12.60
2018-08-31T04:36:49.937Z,12.60
2018-08-31T04:39:18.574Z,12.50
2018-08-31T04:41:47.663Z,12.50
2018-08-31T04:44:16.341Z,12.50
2018-08-31T04:46:44.956Z,12.50
2018-08-31T04:49:13.469Z,12.60
2018-08-31T04:51:41.957Z,12.70
2018-08-31T04:54:10.344Z,12.70
2018-08-31T04:56:39.941Z,12.80
2018-08-31T04:59:08.695Z,12.80
2018-08-31T05:01:37.159Z,12.80
2018-08-31T05:04:05.776Z,12.80
2018-08-31T05:06:34.547Z,12.90
2018-08-31T05:09:03.140Z,12.90
2018-08-31T05:11:31.757Z,12.90
2018-08-31T05:14:00.304Z,13.00
2018-08-31T05:16:29.019Z,13.00
2018-08-31T05:18:57.485Z,13.10
2018-08-31T05:21:26.011Z,13.10
2018-08-31T05:23:55.128Z,13.20
2018-08-31T05:26:24.751Z,13.20
2018-08-31T05:28:53.378Z,13.20
2018-08-31T05:31:21.786Z,13.30
2018-08-31T05:33:50.475Z,13.40
2018-08-31T05:36:19.037Z,13.40
2018-08-31T05:38:48.313Z,13.40
2018-08-31T05:41:16.689Z,13.50
2018-08-31T05:43:47.108Z,13.60
2018-08-31T05:46:16.221Z,13.60
2018-08-31T05:48:44.672Z,13.80
2018-08-31T05:51:13.058Z,13.70
2018-08-31T05:53:41.512Z,13.80
2018-08-31T05:56:09.969Z,14.00
2018-08-31T05:58:38.569Z,14.10
2018-08-31T06:01:07.484Z,14.20
2018-08-31T06:03:35.981Z,14.40
2018-08-31T06:06:05.269Z,14.70
2018-08-31T06:08:33.808Z,14.80
2018-08-31T06:11:02.251Z,15.00
2018-08-31T06:13:30.840Z,15.20
2018-08-31T06:15:59.662Z,15.30
2018-08-31T06:18:28.812Z,15.30
2018-08-31T06:21:00.374Z,15.50
2018-08-31T06:23:29.492Z,15.40
2018-08-31T06:25:58.223Z,15.50
2018-08-31T06:28:26.882Z,15.50
2018-08-31T06:30:55.404Z,15.50
2018-08-31T06:33:24.539Z,15.50
2018-08-31T06:35:53.101Z,15.50
2018-08-31T06:38:21.653Z,15.70
2018-08-31T06:40:50.054Z,15.70
2018-08-31T06:43:18.429Z,15.70
2018-08-31T06:45:47.113Z,15.90
2018-08-31T06:48:15.508Z,16.00
2018-08-31T06:50:43.989Z,16.20
2018-08-31T06:53:12.566Z,16.60
2018-08-31T06:55:40.989Z,16.70
2018-08-31T06:58:09.469Z,16.70
2018-08-31T07:00:38.491Z,16.70
2018-08-31T07:03:07.513Z,16.90
2018-08-31T07:05:35.920Z,16.80
2018-08-31T07:08:04.494Z,16.80
2018-08-31T07:10:32.916Z,17.10
2018-08-31T07:13:01.444Z,17.20
2018-08-31T07:15:29.827Z,17.20
2018-08-31T07:17:58.253Z,17.30
2018-08-31T07:20:26.649Z,17.20
2018-08-31T07:22:55.757Z,17.30
2018-08-31T07:25:24.164Z,17.50
2018-08-31T07:27:52.624Z,17.90
2018-08-31T07:30:21.124Z,18.00
2018-08-31T07:32:49.955Z,17.80
2018-08-31T07:35:18.950Z,18.00
2018-08-31T07:37:47.574Z,17.70
2018-08-31T07:40:16.218Z,17.70
2018-08-31T07:42:44.965Z,17.80
2018-08-31T07:45:13.550Z,17.60
2018-08-31T07:47:41.957Z,17.90
2018-08-31T07:50:10.604Z,18.00
2018-08-31T07:52:39.076Z,18.10
2018-08-31T07:55:07.589Z,18.10
2018-08-31T07:57:36.072Z,17.50
2018-08-31T08:00:04.571Z,17.70
2018-08-31T08:02:33.036Z,17.60
2018-08-31T08:05:01.705Z,17.70
2018-08-31T08:07:30.471Z,17.70
2018-08-31T08:09:59.032Z,17.70
2018-08-31T08:12:28.401Z,17.90
2018-08-31T08:14:56.905Z,17.90
2018-08-31T08:17:25.331Z,18.00
2018-08-31T08:19:53.809Z,18.00
2018-08-31T08:22:22.800Z,17.90
2018-08-31T08:24:52.052Z,17.80
2018-08-31T08:27:20.643Z,17.70
2018-08-31T08:29:49.100Z,18.00
2018-08-31T08:32:17.489Z,18.20
2018-08-31T08:34:47.056Z,18.20
2018-08-31T08:37:15.439Z,18.30
2018-08-31T08:39:44.152Z,18.20
2018-08-31T08:42:12.651Z,18.10
2018-08-31T08:44:41.041Z,18.10
2018-08-31T08:47:09.492Z,18.00
2018-08-31T08:49:37.920Z,18.10
2018-08-31T08:52:07.745Z,18.20
2018-08-31T08:54:36.296Z,18.30
2018-08-31T08:57:04.845Z,18.50
2018-08-31T08:59:33.462Z,18.80
2018-08-31T09:02:01.848Z,18.90
2018-08-31T09:04:30.496Z,19.10
2018-08-31T09:06:58.860Z,19.20
2018-08-31T09:09:28.232Z,19.20
2018-08-31T09:11:56.956Z,19.50
2018-08-31T09:14:25.480Z,19.50
2018-08-31T09:16:54.257Z,19.40
2018-08-31T09:19:22.724Z,19.30
2018-08-31T09:21:51.182Z,19.50
2018-08-31T09:24:19.796Z,19.40
2018-08-31T09:26:51.121Z,19.50
2018-08-31T09:29:19.948Z,19.80
2018-08-31T09:31:48.511Z,20.10
2018-08-31T09:34:17.045Z,20.30
2018-08-31T09:36:45.493Z,20.50
2018-08-31T09:39:14.072Z,20.40
2018-08-31T09:41:42.624Z,20.70
2018-08-31T09:44:11.237Z,20.80
2018-08-31T09:46:39.781Z,20.80
2018-08-31T09:49:08.281Z,21.00
2018-08-31T09:51:36.860Z,20.90
2018-08-31T09:54:05.366Z,20.90
2018-08-31T09:56:33.859Z,21.20
2018-08-31T09:59:02.303Z,21.50
2018-08-31T10:01:33.626Z,21.60
2018-08-31T10:04:02.774Z,21.80
2018-08-31T10:06:32.183Z,22.10
2018-08-31T10:09:01.193Z,22.30
2018-08-31T10:11:29.999Z,21.90
2018-08-31T10:13:58.496Z,21.70
2018-08-31T10:16:27.047Z,21.90
2018-08-31T10:18:55.629Z,22.80
2018-08-31T10:21:24.264Z,23.10
2018-08-31T10:23:52.992Z,23.30
2018-08-31T10:26:21.688Z,24.10
2018-08-31T10:28:50.174Z,24.00
2018-08-31T10:31:18.553Z,23.50
2018-08-31T10:33:46.963Z,23.50
2018-08-31T10:36:15.988Z,23.10
2018-08-31T10:38:45.117Z,22.80
2018-08-31T10:41:13.565Z,22.50
2018-08-31T10:43:41.985Z,22.60
2018-08-31T10:46:11.211Z,22.90
2018-08-31T10:48:39.724Z,23.40
2018-08-31T10:51:08.512Z,23.90
2018-08-31T10:53:37.212Z,24.20
2018-08-31T10:56:05.782Z,24.60
2018-08-31T10:58:34.373Z,24.90
2018-08-31T11:01:03.676Z,25.40
2018-08-31T11:03:32.845Z,25.30
2018-08-31T11:06:01.276Z,24.80
2018-08-31T11:08:30.345Z,24.00
2018-08-31T11:10:59.680Z,23.20
2018-08-31T11:13:28.152Z,22.80
2018-08-31T11:15:56.586Z,22.40
2018-08-31T11:18:25.092Z,22.00
2018-08-31T11:20:54.007Z,21.80
2018-08-31T11:23:22.887Z,21.40
2018-08-31T11:25:51.301Z,21.20
2018-08-31T11:28:20.284Z,20.80
2018-08-31T11:30:48.843Z,20.60
2018-08-31T11:33:17.410Z,20.90
2018-08-31T11:35:46.104Z,21.30
2018-08-31T11:38:15.125Z,21.40
2018-08-31T11:40:43.727Z,21.60
2018-08-31T11:43:12.167Z,21.70
2018-08-31T11:45:40.664Z,21.60
2018-08-31T11:48:09.217Z,21.70
2018-08-31T11:50:37.690Z,22.10
2018-08-31T11:53:06.868Z,22.50
2018-08-31T11:55:35.528Z,22.50
2018-08-31T11:58:04.100Z,23.00
2018-08-31T12:00:32.656Z,23.50
2018-08-31T12:03:01.094Z,23.20
2018-08-31T12:05:29.861Z,22.80
2018-08-31T12:07:58.379Z,22.10
2018-08-31T12:10:26.841Z,21.70
2018-08-31T12:12:55.493Z,21.10
2018-08-31T12:15:24.189Z,20.90
2018-08-31T12:17:52.572Z,20.60
2018-08-31T12:20:21.261Z,20.40
2018-08-31T12:22:49.902Z,20.40
2018-08-31T12:25:18.809Z,20.30
2018-08-31T12:27:47.473Z,20.00
2018-08-31T12:30:16.984Z,19.90
2018-08-31T12:32:45.505Z,19.80
2018-08-31T12:35:13.973Z,20.10
2018-08-31T12:37:42.584Z,20.60
2018-08-31T12:40:11.127Z,20.80
2018-08-31T12:42:39.611Z,20.90
2018-08-31T12:45:08.328Z,21.20
2018-08-31T12:47:36.997Z,21.50
2018-08-31T12:50:05.476Z,21.80
2018-08-31T12:52:34.784Z,21.90
2018-08-31T12:55:04.006Z,21.90
2018-08-31T12:57:32.633Z,21.90
2018-08-31T13:00:01.992Z,21.70
2018-08-31T13:02:31.907Z,21.90
2018-08-31T13:05:01.702Z,22.10
2018-08-31T13:07:30.269Z,21.80
2018-08-31T13:09:58.901Z,21.50
2018-08-31T13:12:27.429Z,21.50
2018-08-31T13:14:55.848Z,21.70
2018-08-31T13:17:24.291Z,21.70
2018-08-31T13:19:53.523Z,21.90
2018-08-31T13:22:22.726Z,21.80
2018-08-31T13:24:51.460Z,22.10
2018-08-31T13:27:20.536Z,22.60
2018-08-31T13:29:49.047Z,22.50
2018-08-31T13:32:17.639Z,22.40
2018-08-31T13:34:46.160Z,22.40
2018-08-31T13:37:15.174Z,22.50
2018-08-31T13:39:43.724Z,22.50
2018-08-31T13:42:12.626Z,22.70
2018-08-31T13:44:41.033Z,22.60
2018-08-31T13:47:10.210Z,22.60
2018-08-31T13:49:38.680Z,22.90
2018-08-31T13:52:07.119Z,23.20
2018-08-31T13:54:35.653Z,23.30
2018-08-31T13:57:04.129Z,23.40
2018-08-31T13:59:32.575Z,23.50
2018-08-31T14:02:01.165Z,23.50
2018-08-31T14:04:30.313Z,23.20
2018-08-31T14:06:59.685Z,22.90
2018-08-31T14:09:28.249Z,22.80
2018-08-31T14:11:56.652Z,23.00
2018-08-31T14:14:25.720Z,23.10
2018-08-31T14:16:54.199Z,23.20
2018-08-31T14:19:22.628Z,23.00
2018-08-31T14:21:51.044Z,23.00
2018-08-31T14:24:19.465Z,23.00
2018-08-31T14:26:47.888Z,22.70
2018-08-31T14:29:16.536Z,22.70
2018-08-31T14:31:45.201Z,22.60
2018-08-31T14:34:13.610Z,22.70
2018-08-31T14:36:42.171Z,22.50
2018-08-31T14:39:10.983Z,22.60
2018-08-31T14:41:39.503Z,22.60
2018-08-31T14:44:08.712Z,22.60
2018-08-31T14:46:38.560Z,22.50
2018-08-31T14:49:07.458Z,22.40
2018-08-31T14:51:35.954Z,22.50
2018-08-31T14:54:04.728Z,22.40
2018-08-31T14:56:33.276Z,22.40
2018-08-31T14:59:02.709Z,22.20
2018-08-31T15:01:31.205Z,22.00
2018-08-31T15:03:59.722Z,21.70
2018-08-31T15:06:28.083Z,21.50
2018-08-31T15:08:56.488Z,21.50
2018-08-31T15:11:24.989Z,21.40
2018-08-31T15:13:53.693Z,21.40
2018-08-31T15:16:22.192Z,21.50
2018-08-31T15:18:50.760Z,21.50
2018-08-31T15:21:19.435Z,21.40
2018-08-31T15:23:47.900Z,21.30
2018-08-31T15:26:16.406Z,21.20
2018-08-31T15:28:44.812Z,21.20
2018-08-31T15:31:13.380Z,21.30
2018-08-31T15:33:42.677Z,21.10
2018-08-31T15:36:11.746Z,21.30
2018-08-31T15:38:40.637Z,21.40
2018-08-31T15:41:09.928Z,21.40
2018-08-31T15:43:38.755Z,21.20
2018-08-31T15:46:07.186Z,21.10
2018-08-31T15:48:35.697Z,20.80
2018-08-31T15:51:04.184Z,20.60
2018-08-31T15:53:32.687Z,20.60
2018-08-31T15:56:01.190Z,20.60
2018-08-31T15:58:29.765Z,20.60
2018-08-31T16:00:58.152Z,20.50
2018-08-31T16:03:26.912Z,20.50
2018-08-31T16:05:55.372Z,20.50
2018-08-31T16:08:24.313Z,20.50
2018-08-31T16:10:52.751Z,20.50
2018-08-31T16:13:21.449Z,20.40
2018-08-31T16:15:50.132Z,20.40
2018-08-31T16:18:18.761Z,20.20
2018-08-31T16:20:47.512Z,20.20
2018-08-31T16:23:16.080Z,20.20
2018-08-31T16:25:45.092Z,20.10
2018-08-31T16:28:13.512Z,19.90
2018-08-31T16:30:42.669Z,20.00
2018-08-31T16:33:11.139Z,20.00
2018-08-31T16:35:39.560Z,20.00
2018-08-31T16:38:08.717Z,20.00
2018-08-31T16:40:37.196Z,20.00
2018-08-31T16:43:05.904Z,19.90
2018-08-31T16:45:35.088Z,19.80
2018-08-31T16:48:03.677Z,19.80
2018-08-31T16:50:32.185Z,19.70
2018-08-31T16:53:00.681Z,19.70
2018-08-31T16:55:29.121Z,19.60
2018-08-31T16:57:58.658Z,19.70
2018-08-31T17:00:27.204Z,19.60
2018-08-31T17:02:55.630Z,19.60
2018-08-31T17:05:24.424Z,19.60
2018-08-31T17:07:52.962Z,19.50
2018-08-31T17:10:21.354Z,19.40
2018-08-31T17:12:50.357Z,19.40
2018-08-31T17:15:20.938Z,19.40
2018-08-31T17:17:52.722Z,19.30
2018-08-31T17:20:21.365Z,19.30
2018-08-31T17:22:50.252Z,19.30
2018-08-31T17:25:18.806Z,19.20
2018-08-31T17:27:52.780Z,19.10
2018-08-31T17:30:23.020Z,19.00
2018-08-31T17:32:56.788Z,19.00
2018-08-31T17:35:30.541Z,18.90
2018-08-31T17:38:00.390Z,18.80
2018-08-31T17:40:29.222Z,18.80
2018-08-31T17:42:57.924Z,18.80
2018-08-31T17:45:27.143Z,18.70
2018-08-31T17:47:55.766Z,18.70
2018-08-31T17:50:24.299Z,18.60
2018-08-31T17:52:52.729Z,18.60
2018-08-31T17:55:21.452Z,18.50
2018-08-31T17:57:49.896Z,18.50
2018-08-31T18:00:18.436Z,18.40
2018-08-31T18:02:46.823Z,18.40
2018-08-31T18:05:15.249Z,18.30
2018-08-31T18:07:44.161Z,18.20
2018-08-31T18:10:12.625Z,18.20
2018-08-31T18:12:40.996Z,18.10
2018-08-31T18:15:09.609Z,18.10
2018-08-31T18:17:38.688Z,18.00
2018-08-31T18:20:07.152Z,17.90
2018-08-31T18:22:36.368Z,17.80
2018-08-31T18:25:05.080Z,17.80
2018-08-31T18:27:33.788Z,17.70
2018-08-31T18:30:02.388Z,17.60
2018-08-31T18:32:31.376Z,17.60
2018-08-31T18:35:00.148Z,17.50
2018-08-31T18:37:28.722Z,17.50
2018-08-31T18:39:57.442Z,17.40
2018-08-31T18:42:26.040Z,17.30
2018-08-31T18:44:54.444Z,17.30
2018-08-31T18:47:23.185Z,17.20
2018-08-31T18:49:51.878Z,17.20
2018-08-31T18:52:20.466Z,17.10
2018-08-31T18:54:49.237Z,17.10
2018-08-31T18:57:18.284Z,17.00
2018-08-31T18:59:46.732Z,16.90
2018-08-31T19:02:15.290Z,16.90
2018-08-31T19:04:43.724Z,16.80
2018-08-31T19:07:12.547Z,16.80
2018-08-31T19:09:41.057Z,16.70
2018-08-31T19:12:09.446Z,16.70
2018-08-31T19:14:44.732Z,16.60
2018-08-31T19:17:13.136Z,16.50
2018-08-31T19:19:42.224Z,16.50
2018-08-31T19:22:10.801Z,16.40
2018-08-31T19:24:39.345Z,16.40
2018-08-31T19:27:08.524Z,16.40
2018-08-31T19:29:37.085Z,16.40
2018-08-31T19:32:05.761Z,16.30
2018-08-31T19:34:34.260Z,16.10
2018-08-31T19:37:03.516Z,16.10
2018-08-31T19:39:31.965Z,16.00
2018-08-31T19:42:00.608Z,16.10
2018-08-31T19:44:29.180Z,16.10
2018-08-31T19:46:57.703Z,16.00
2018-08-31T19:49:26.356Z,16.00
2018-08-31T19:51:54.966Z,16.00
2018-08-31T19:54:23.656Z,16.00
2018-08-31T19:56:52.418Z,16.00
2018-08-31T19:59:21.013Z,16.00
2018-08-31T20:01:49.433Z,16.00
2018-08-31T20:04:18.080Z,16.00
2018-08-31T20:06:47.038Z,15.90
2018-08-31T20:09:15.669Z,15.80
2018-08-31T20:11:45.169Z,15.90
2018-08-31T20:14:13.634Z,15.80
2018-08-31T20:16:42.172Z,15.80
2018-08-31T20:19:11.346Z,15.90
2018-08-31T20:21:40.575Z,15.80
2018-08-31T20:24:11.081Z,15.80
2018-08-31T20:26:40.040Z,15.80
2018-08-31T20:29:08.614Z,15.80
2018-08-31T20:31:37.235Z,15.80
2018-08-31T20:34:06.344Z,15.80
2018-08-31T20:36:34.782Z,15.80
2018-08-31T20:39:04.134Z,15.80
2018-08-31T20:41:32.672Z,15.80
2018-08-31T20:44:01.221Z,15.80
2018-08-31T20:46:29.920Z,15.70
2018-08-31T20:48:58.396Z,15.70
2018-08-31T20:51:27.029Z,15.70
2018-08-31T20:53:55.700Z,15.80
2018-08-31T20:56:24.421Z,15.80
2018-08-31T20:58:52.863Z,15.80
2018-08-31T21:01:23.224Z,15.80
2018-08-31T21:03:51.785Z,15.70
2018-08-31T21:06:20.537Z,15.70
2018-08-31T21:08:49.245Z,15.70
2018-08-31T21:11:18.297Z,15.80
2018-08-31T21:13:46.695Z,15.80
2018-08-31T21:16:15.092Z,15.90
2018-08-31T21:18:43.780Z,15.90
2018-08-31T21:21:12.982Z,15.90
2018-08-31T21:23:42.176Z,15.90
2018-08-31T21:26:10.753Z,15.80
2018-08-31T21:28:39.368Z,15.80
2018-08-31T21:31:07.809Z,15.80
2018-08-31T21:33:36.345Z,15.90
2018-08-31T21:36:04.797Z,15.90
2018-08-31T21:38:33.360Z,15.80
2018-08-31T21:41:01.864Z,15.80
2018-08-31T21:43:30.425Z,15.80
2018-08-31T21:45:58.926Z,15.80
2018-08-31T21:48:28.020Z,15.80
2018-08-31T21:50:57.549Z,15.80
2018-08-31T21:53:26.856Z,15.80
2018-08-31T21:55:55.407Z,15.80
2018-08-31T21:58:23.817Z,15.80
2018-08-31T22:00:56.482Z,15.80
2018-08-31T22:03:25.089Z,15.70
2018-08-31T22:05:54.252Z,15.70
2018-08-31T22:08:22.794Z,15.70
2018-08-31T22:10:51.449Z,15.60
2018-08-31T22:13:20.216Z,15.60
2018-08-31T22:15:48.811Z,15.60
2018-08-31T22:18:17.382Z,15.60
2018-08-31T22:20:46.639Z,15.50
2018-08-31T22:23:15.144Z,15.50
2018-08-31T22:25:43.868Z,15.40
2018-08-31T22:28:13.248Z,15.30
2018-08-31T22:30:41.733Z,15.20
2018-08-31T22:33:10.200Z,14.90
2018-08-31T22:35:38.858Z,14.90
2018-08-31T22:38:07.464Z,14.90
2018-08-31T22:40:36.092Z,15.00
2018-08-31T22:43:04.844Z,14.70
2018-08-31T22:45:33.330Z,14.70
2018-08-31T22:48:02.436Z,14.70
2018-08-31T22:50:30.840Z,14.80
2018-08-31T22:53:00.068Z,14.70
2018-08-31T22:55:29.143Z,14.60
2018-08-31T22:57:58.115Z,14.60
2018-08-31T23:00:27.590Z,14.70
2018-08-31T23:02:56.808Z,14.70
2018-08-31T23:05:25.208Z,14.60
2018-08-31T23:08:04.120Z,14.40
2018-08-31T23:10:33.740Z,14.40
2018-08-31T23:13:03.148Z,14.30
2018-08-31T23:15:31.720Z,14.30
2018-08-31T23:18:00.128Z,14.20
2018-08-31T23:20:28.536Z,14.20
2018-08-31T23:23:02.585Z,14.20
2018-08-31T23:25:36.537Z,14.20
